createdAt,value
2018-03-03T00:00:35.913Z,0
2018-03-03T00:01:44.731Z,0
2018-03-03T00:02:53.803Z,0
2018-03-03T00:04:02.623Z,0
2018-03-03T00:05:11.445Z,0
2018-03-03T00:06:20.261Z,0
2018-03-03T00:07:29.080Z,0
2018-03-03T00:08:37.903Z,0
2018-03-03T00:09:46.722Z,0
2018-03-03T00:10:55.542Z,0
2018-03-03T00:12:04.360Z,0
2018-03-03T00:13:13.176Z,0
2018-03-03T00:14:22.145Z,0
2018-03-03T00:15:30.972Z,0
2018-03-03T00:16:40.350Z,0
2018-03-03T00:17:49.165Z,0
2018-03-03T00:18:57.987Z,0
2018-03-03T00:20:06.807Z,0
2018-03-03T00:21:15.628Z,0
2018-03-03T00:22:24.447Z,0
2018-03-03T00:23:33.269Z,0
2018-03-03T00:24:42.087Z,0
2018-03-03T00:25:51.057Z,0
2018-03-03T00:26:59.875Z,0
2018-03-03T00:28:08.696Z,0
2018-03-03T00:29:17.514Z,0
2018-03-03T00:30:26.333Z,0
2018-03-03T00:31:35.205Z,0
2018-03-03T00:32:44.023Z,0
2018-03-03T00:33:52.839Z,0
2018-03-03T00:35:01.658Z,0
2018-03-03T00:36:10.479Z,0
2018-03-03T00:37:19.298Z,0
2018-03-03T00:38:28.121Z,0
2018-03-03T00:39:36.941Z,0
2018-03-03T00:40:45.759Z,0
2018-03-03T00:41:54.578Z,0
2018-03-03T00:43:03.548Z,0
2018-03-03T00:44:12.370Z,0
2018-03-03T00:45:21.186Z,0
2018-03-03T00:46:30.008Z,0
2018-03-03T00:47:38.827Z,0
2018-03-03T00:48:47.792Z,0
2018-03-03T00:49:56.613Z,0
2018-03-03T00:51:05.718Z,0
2018-03-03T00:52:14.542Z,0
2018-03-03T00:53:23.362Z,0
2018-03-03T00:54:32.506Z,0
2018-03-03T00:55:41.327Z,0
2018-03-03T00:56:50.148Z,0
2018-03-03T00:57:59.243Z,0
2018-03-03T00:59:08.067Z,0
2018-03-03T01:00:17.310Z,0
2018-03-03T01:01:26.131Z,0
2018-03-03T01:02:34.954Z,0
2018-03-03T01:03:44.045Z,0
2018-03-03T01:04:52.865Z,0
2018-03-03T01:06:02.112Z,0
2018-03-03T01:07:10.932Z,0
2018-03-03T01:08:19.752Z,0
2018-03-03T01:09:28.573Z,0
2018-03-03T01:10:37.393Z,0
2018-03-03T01:11:46.362Z,0
2018-03-03T01:12:55.181Z,0
2018-03-03T01:14:04.006Z,0
2018-03-03T01:15:12.820Z,0
2018-03-03T01:16:21.643Z,0
2018-03-03T01:17:30.839Z,0
2018-03-03T01:18:39.658Z,0
2018-03-03T01:19:48.473Z,0
2018-03-03T01:20:57.294Z,0
2018-03-03T01:22:06.117Z,0
2018-03-03T01:23:15.042Z,0
2018-03-03T01:24:23.853Z,0
2018-03-03T01:25:32.677Z,0
2018-03-03T01:26:41.493Z,0
2018-03-03T01:27:50.311Z,0
2018-03-03T01:28:59.284Z,0
2018-03-03T01:30:08.383Z,0
2018-03-03T01:31:17.203Z,0
2018-03-03T01:32:26.024Z,0
2018-03-03T01:33:34.844Z,0
2018-03-03T01:34:43.665Z,0
2018-03-03T01:35:52.762Z,0
2018-03-03T01:37:01.859Z,0
2018-03-03T01:38:10.954Z,0
2018-03-03T01:39:19.774Z,0
2018-03-03T01:40:28.700Z,0
2018-03-03T01:41:37.518Z,0
2018-03-03T01:42:46.623Z,0
2018-03-03T01:43:55.435Z,0
2018-03-03T01:45:04.262Z,0
2018-03-03T01:46:13.376Z,0
2018-03-03T01:47:22.471Z,0
2018-03-03T01:48:31.296Z,0
2018-03-03T01:49:40.388Z,0
2018-03-03T01:50:49.205Z,0
2018-03-03T01:51:58.173Z,0
2018-03-03T01:53:06.996Z,0
2018-03-03T01:54:15.818Z,0
2018-03-03T01:55:24.637Z,0
2018-03-03T01:56:33.453Z,0
2018-03-03T01:57:42.573Z,0
2018-03-03T01:58:51.391Z,0
2018-03-03T02:00:00.210Z,0
2018-03-03T02:01:09.029Z,0
2018-03-03T02:02:17.848Z,0
2018-03-03T02:03:26.717Z,0
2018-03-03T02:04:35.536Z,0
2018-03-03T02:05:44.634Z,0
2018-03-03T02:06:53.452Z,0
2018-03-03T02:08:02.273Z,0
2018-03-03T02:09:11.093Z,0
2018-03-03T02:10:19.912Z,0
2018-03-03T02:11:29.008Z,0
2018-03-03T02:12:37.824Z,0
2018-03-03T02:13:46.645Z,0
2018-03-03T02:14:55.756Z,0
2018-03-03T02:16:04.573Z,0
2018-03-03T02:17:13.389Z,0
2018-03-03T02:18:22.207Z,0
2018-03-03T02:19:31.026Z,0
2018-03-03T02:20:40.221Z,0
2018-03-03T02:21:49.044Z,0
2018-03-03T02:22:58.134Z,0
2018-03-03T02:24:06.953Z,0
2018-03-03T02:25:15.770Z,0
2018-03-03T02:26:24.888Z,0
2018-03-03T02:27:33.706Z,0
2018-03-03T02:28:42.525Z,0
2018-03-03T02:29:51.344Z,0
2018-03-03T02:31:00.442Z,0
2018-03-03T02:32:09.413Z,0
2018-03-03T02:33:18.230Z,0
2018-03-03T02:34:27.049Z,0
2018-03-03T02:35:35.871Z,0
2018-03-03T02:36:44.692Z,0
2018-03-03T02:37:53.663Z,0
2018-03-03T02:39:02.762Z,0
2018-03-03T02:40:11.580Z,0
2018-03-03T02:41:20.400Z,0
2018-03-03T02:42:29.217Z,0
2018-03-03T02:43:38.140Z,0
2018-03-03T02:44:46.958Z,0
2018-03-03T02:45:56.054Z,0
2018-03-03T02:47:04.873Z,0
2018-03-03T02:48:13.702Z,0
2018-03-03T02:49:22.513Z,0
2018-03-03T02:50:31.341Z,0
2018-03-03T02:51:40.159Z,0
2018-03-03T02:52:48.986Z,0
2018-03-03T02:53:57.801Z,0
2018-03-03T02:55:06.623Z,0
2018-03-03T02:56:15.440Z,0
2018-03-03T02:57:24.546Z,0
2018-03-03T02:58:33.365Z,0
2018-03-03T02:59:42.182Z,0
2018-03-03T03:00:51.386Z,0
2018-03-03T03:02:00.206Z,0
2018-03-03T03:03:09.584Z,0
2018-03-03T03:04:18.678Z,0
2018-03-03T03:05:27.498Z,0
2018-03-03T03:06:36.419Z,0
2018-03-03T03:07:45.237Z,0
2018-03-03T03:08:54.054Z,0
2018-03-03T03:10:02.874Z,0
2018-03-03T03:11:11.691Z,0
2018-03-03T03:12:20.661Z,0
2018-03-03T03:13:29.762Z,0
2018-03-03T03:14:38.585Z,0
2018-03-03T03:15:47.405Z,0
2018-03-03T03:16:56.225Z,0
2018-03-03T03:18:05.144Z,0
2018-03-03T03:19:13.967Z,0
2018-03-03T03:20:22.780Z,0
2018-03-03T03:21:31.600Z,0
2018-03-03T03:22:40.421Z,0
2018-03-03T03:23:49.387Z,0
2018-03-03T03:24:58.207Z,0
2018-03-03T03:26:07.302Z,0
2018-03-03T03:27:16.121Z,0
2018-03-03T03:28:24.939Z,0
2018-03-03T03:29:33.759Z,0
2018-03-03T03:30:42.577Z,0
2018-03-03T03:31:51.395Z,0
2018-03-03T03:33:00.215Z,0
2018-03-03T03:34:09.034Z,0
2018-03-03T03:35:17.852Z,0
2018-03-03T03:36:26.669Z,0
2018-03-03T03:37:35.485Z,0
2018-03-03T03:38:44.306Z,0
2018-03-03T03:39:53.403Z,0
2018-03-03T03:41:02.222Z,0
2018-03-03T03:42:11.040Z,0
2018-03-03T03:43:19.856Z,0
2018-03-03T03:44:28.673Z,0
2018-03-03T03:45:37.492Z,0
2018-03-03T03:46:46.599Z,0
2018-03-03T03:47:55.419Z,0
2018-03-03T03:49:04.236Z,0
2018-03-03T03:50:13.336Z,0
2018-03-03T03:51:22.148Z,0
2018-03-03T03:52:31.167Z,0
2018-03-03T03:53:39.983Z,0
2018-03-03T03:54:48.802Z,0
2018-03-03T03:55:57.623Z,0
2018-03-03T03:57:06.444Z,0
2018-03-03T03:58:15.689Z,0
2018-03-03T03:59:24.507Z,0
2018-03-03T04:00:33.602Z,0
2018-03-03T04:01:42.430Z,0
2018-03-03T04:02:51.238Z,0
2018-03-03T04:04:00.059Z,0
2018-03-03T04:05:09.158Z,0
2018-03-03T04:06:17.976Z,0
2018-03-03T04:07:26.802Z,0
2018-03-03T04:08:35.902Z,0
2018-03-03T04:09:45.095Z,0
2018-03-03T04:10:53.913Z,0
2018-03-03T04:12:02.729Z,0
2018-03-03T04:13:11.547Z,0
2018-03-03T04:14:20.364Z,0
2018-03-03T04:15:29.332Z,0
2018-03-03T04:16:38.428Z,0
2018-03-03T04:17:47.246Z,0
2018-03-03T04:18:56.066Z,0
2018-03-03T04:20:05.167Z,0
2018-03-03T04:21:14.364Z,0
2018-03-03T04:22:23.180Z,0
2018-03-03T04:23:31.999Z,0
2018-03-03T04:24:40.819Z,0
2018-03-03T04:25:49.639Z,0
2018-03-03T04:26:58.459Z,0
2018-03-03T04:28:07.278Z,0
2018-03-03T04:29:16.100Z,0
2018-03-03T04:30:24.918Z,0
2018-03-03T04:31:34.008Z,0
2018-03-03T04:32:43.126Z,0
2018-03-03T04:33:51.942Z,0
2018-03-03T04:35:00.760Z,0
2018-03-03T04:36:09.581Z,0
2018-03-03T04:37:18.395Z,0
2018-03-03T04:38:27.311Z,0
2018-03-03T04:39:36.127Z,0
2018-03-03T04:40:44.945Z,0
2018-03-03T04:41:53.765Z,0
2018-03-03T04:43:02.584Z,0
2018-03-03T04:44:11.401Z,0
2018-03-03T04:45:20.220Z,0
2018-03-03T04:46:29.040Z,0
2018-03-03T04:47:37.858Z,0
2018-03-03T04:48:46.674Z,0
2018-03-03T04:49:55.642Z,0
2018-03-03T04:51:04.462Z,0
2018-03-03T04:52:13.280Z,0
2018-03-03T04:53:22.375Z,0
2018-03-03T04:54:31.467Z,0
2018-03-03T04:55:40.287Z,0
2018-03-03T04:56:49.102Z,0
2018-03-03T04:57:57.920Z,0
2018-03-03T04:59:06.738Z,0
2018-03-03T05:00:15.552Z,0
2018-03-03T05:01:24.521Z,0
2018-03-03T05:02:33.618Z,0
2018-03-03T05:03:42.438Z,0
2018-03-03T05:04:51.256Z,0
2018-03-03T05:06:00.351Z,0
2018-03-03T05:07:09.318Z,0
2018-03-03T05:08:18.137Z,0
2018-03-03T05:09:26.953Z,0
2018-03-03T05:10:35.774Z,0
2018-03-03T05:11:44.869Z,0
2018-03-03T05:12:53.987Z,0
2018-03-03T05:14:02.807Z,0
2018-03-03T05:15:11.627Z,0
2018-03-03T05:16:20.443Z,0
2018-03-03T05:17:29.263Z,0
2018-03-03T05:18:38.234Z,0
2018-03-03T05:19:47.323Z,0
2018-03-03T05:20:56.143Z,0
2018-03-03T05:22:04.963Z,0
2018-03-03T05:23:13.780Z,0
2018-03-03T05:24:22.596Z,0
2018-03-03T05:25:31.696Z,0
2018-03-03T05:26:40.512Z,0
2018-03-03T05:27:49.332Z,0
2018-03-03T05:28:58.150Z,0
2018-03-03T05:30:07.022Z,0
2018-03-03T05:31:15.837Z,0
2018-03-03T05:32:24.654Z,0
2018-03-03T05:33:33.755Z,0
2018-03-03T05:34:42.574Z,0
2018-03-03T05:35:51.544Z,0
2018-03-03T05:37:00.638Z,0
2018-03-03T05:38:09.457Z,0
2018-03-03T05:39:18.275Z,0
2018-03-03T05:40:27.093Z,4
2018-03-03T05:41:36.017Z,0
2018-03-03T05:42:44.833Z,0
2018-03-03T05:43:53.670Z,4
2018-03-03T05:45:02.467Z,0
2018-03-03T05:46:11.286Z,4
2018-03-03T05:47:20.881Z,4
2018-03-03T05:48:29.700Z,8
2018-03-03T05:49:38.792Z,8
2018-03-03T05:50:47.611Z,8
2018-03-03T05:51:56.429Z,12
2018-03-03T05:53:05.395Z,8
2018-03-03T05:54:14.488Z,12
2018-03-03T05:55:23.583Z,16
2018-03-03T05:56:32.399Z,16
2018-03-03T05:57:41.496Z,24
2018-03-03T05:58:50.414Z,24
2018-03-03T05:59:59.233Z,28
2018-03-03T06:01:08.057Z,36
2018-03-03T06:02:16.875Z,40
2018-03-03T06:03:25.691Z,44
2018-03-03T06:04:34.509Z,52
2018-03-03T06:05:43.329Z,60
2018-03-03T06:06:52.146Z,68
2018-03-03T06:08:00.963Z,72
2018-03-03T06:09:09.782Z,84
2018-03-03T06:10:18.702Z,92
2018-03-03T06:11:27.521Z,100
2018-03-03T06:12:36.341Z,112
2018-03-03T06:13:45.157Z,120
2018-03-03T06:14:53.975Z,132
2018-03-03T06:16:03.192Z,144
2018-03-03T06:17:12.012Z,156
2018-03-03T06:18:20.830Z,168
2018-03-03T06:19:29.649Z,180
2018-03-03T06:20:38.469Z,196
2018-03-03T06:21:47.387Z,208
2018-03-03T06:22:56.211Z,220
2018-03-03T06:24:05.034Z,236
2018-03-03T06:25:13.859Z,252
2018-03-03T06:26:22.952Z,264
2018-03-03T06:27:31.868Z,280
2018-03-03T06:28:40.687Z,292
2018-03-03T06:29:49.776Z,308
2018-03-03T06:30:58.598Z,324
2018-03-03T06:32:07.414Z,336
2018-03-03T06:33:16.383Z,356
2018-03-03T06:34:25.199Z,368
2018-03-03T06:35:34.016Z,384
2018-03-03T06:36:42.835Z,400
2018-03-03T06:37:51.653Z,416
2018-03-03T06:39:00.798Z,432
2018-03-03T06:40:09.616Z,448
2018-03-03T06:41:18.433Z,460
2018-03-03T06:42:27.252Z,480
2018-03-03T06:43:36.069Z,492
2018-03-03T06:44:45.188Z,508
2018-03-03T06:45:54.008Z,524
2018-03-03T06:47:02.823Z,540
2018-03-03T06:48:11.642Z,552
2018-03-03T06:49:21.009Z,568
2018-03-03T06:50:29.933Z,584
2018-03-03T06:51:39.030Z,596
2018-03-03T06:52:47.848Z,612
2018-03-03T06:53:56.668Z,628
2018-03-03T06:55:05.486Z,640
2018-03-03T06:56:14.831Z,656
2018-03-03T06:57:23.649Z,672
2018-03-03T06:58:32.466Z,684
2018-03-03T06:59:41.559Z,696
2018-03-03T07:00:50.380Z,712
2018-03-03T07:01:59.302Z,728
2018-03-03T07:03:08.122Z,736
2018-03-03T07:04:16.940Z,752
2018-03-03T07:05:25.765Z,764
2018-03-03T07:06:34.584Z,776
2018-03-03T07:07:43.505Z,788
2018-03-03T07:08:52.272Z,804
2018-03-03T07:10:01.090Z,816
2018-03-03T07:11:09.918Z,828
2018-03-03T07:12:19.009Z,840
2018-03-03T07:13:27.828Z,852
2018-03-03T07:14:36.920Z,864
2018-03-03T07:15:45.740Z,880
2018-03-03T07:16:54.566Z,888
2018-03-03T07:18:03.378Z,904
2018-03-03T07:19:12.197Z,912
2018-03-03T07:20:21.013Z,924
2018-03-03T07:21:29.832Z,936
2018-03-03T07:22:38.652Z,948
2018-03-03T07:23:47.474Z,960
2018-03-03T07:24:56.549Z,972
2018-03-03T07:26:05.364Z,988
2018-03-03T07:27:14.183Z,996
2018-03-03T07:28:23.357Z,1008
2018-03-03T07:29:32.106Z,1016
2018-03-03T07:30:41.204Z,1028
2018-03-03T07:31:50.020Z,1040
2018-03-03T07:32:58.839Z,1052
2018-03-03T07:34:07.659Z,1060
2018-03-03T07:35:16.479Z,1076
2018-03-03T07:36:25.297Z,1080
2018-03-03T07:37:34.392Z,1092
2018-03-03T07:38:43.223Z,1104
2018-03-03T07:39:52.044Z,1120
2018-03-03T07:41:00.865Z,1132
2018-03-03T07:42:09.734Z,1132
2018-03-03T07:43:18.554Z,1144
2018-03-03T07:44:27.376Z,1148
2018-03-03T07:45:36.197Z,1168
2018-03-03T07:46:45.288Z,1172
2018-03-03T07:47:54.111Z,1184
2018-03-03T07:49:02.932Z,1192
2018-03-03T07:50:11.750Z,1204
2018-03-03T07:51:20.850Z,1208
2018-03-03T07:52:29.671Z,1220
2018-03-03T07:53:38.591Z,1232
2018-03-03T07:54:47.409Z,1240
2018-03-03T07:55:56.228Z,1248
2018-03-03T07:57:05.048Z,1260
2018-03-03T07:58:13.872Z,1272
2018-03-03T07:59:23.014Z,1276
2018-03-03T08:00:32.123Z,1284
2018-03-03T08:01:40.945Z,1292
2018-03-03T08:02:49.765Z,1304
2018-03-03T08:03:58.585Z,1312
2018-03-03T08:05:07.709Z,1316
2018-03-03T08:06:16.527Z,1332
2018-03-03T08:07:25.625Z,1348
2018-03-03T08:08:34.446Z,1352
2018-03-03T08:09:43.266Z,1360
2018-03-03T08:10:52.232Z,1368
2018-03-03T08:12:01.068Z,1372
2018-03-03T08:13:09.872Z,1380
2018-03-03T08:14:18.690Z,1392
2018-03-03T08:15:27.510Z,1404
2018-03-03T08:16:36.432Z,1404
2018-03-03T08:17:45.581Z,1424
2018-03-03T08:18:54.402Z,1420
2018-03-03T08:20:03.221Z,1428
2018-03-03T08:21:12.040Z,1436
2018-03-03T08:22:21.162Z,1440
2018-03-03T08:23:29.991Z,1456
2018-03-03T08:24:38.861Z,1460
2018-03-03T08:25:47.631Z,1464
2018-03-03T08:26:56.451Z,1472
2018-03-03T08:28:05.521Z,1480
2018-03-03T08:29:14.345Z,1488
2018-03-03T08:30:23.171Z,1504
2018-03-03T08:31:31.993Z,1508
2018-03-03T08:32:40.813Z,1524
2018-03-03T08:33:49.634Z,1536
2018-03-03T08:34:58.454Z,1544
2018-03-03T08:36:07.275Z,1552
2018-03-03T08:37:16.096Z,1568
2018-03-03T08:38:24.916Z,1576
2018-03-03T08:39:33.985Z,1588
2018-03-03T08:40:42.809Z,1588
2018-03-03T08:41:51.626Z,1592
2018-03-03T08:43:00.447Z,1600
2018-03-03T08:44:09.267Z,1688
2018-03-03T08:45:18.137Z,1696
2018-03-03T08:46:26.957Z,1700
2018-03-03T08:47:35.777Z,1708
2018-03-03T08:48:44.601Z,1724
2018-03-03T08:49:53.427Z,1728
2018-03-03T08:51:02.298Z,1736
2018-03-03T08:52:11.120Z,1752
2018-03-03T08:53:19.939Z,1760
2018-03-03T08:54:28.762Z,1756
2018-03-03T08:55:37.635Z,1784
2018-03-03T08:56:46.560Z,1768
2018-03-03T08:57:55.380Z,1788
2018-03-03T08:59:04.196Z,1808
2018-03-03T09:00:13.297Z,1812
2018-03-03T09:01:22.113Z,1828
2018-03-03T09:02:30.935Z,1836
2018-03-03T09:03:39.755Z,1840
2018-03-03T09:04:48.577Z,1844
2018-03-03T09:05:57.675Z,1852
2018-03-03T09:07:06.498Z,1864
2018-03-03T09:08:15.317Z,1864
2018-03-03T09:09:24.141Z,1864
2018-03-03T09:10:32.963Z,1864
2018-03-03T09:11:41.785Z,1892
2018-03-03T09:12:50.608Z,1884
2018-03-03T09:13:59.578Z,1904
2018-03-03T09:15:08.400Z,1916
2018-03-03T09:16:17.226Z,1908
2018-03-03T09:17:26.040Z,1936
2018-03-03T09:18:34.867Z,1940
2018-03-03T09:19:43.937Z,1952
2018-03-03T09:20:52.758Z,1964
2018-03-03T09:22:01.864Z,1980
2018-03-03T09:23:10.960Z,1980
2018-03-03T09:24:19.783Z,1996
2018-03-03T09:25:28.707Z,1996
2018-03-03T09:26:37.527Z,1996
2018-03-03T09:27:46.346Z,2020
2018-03-03T09:28:55.167Z,2020
2018-03-03T09:30:03.988Z,2008
2018-03-03T09:31:12.905Z,2032
2018-03-03T09:32:21.727Z,2048
2018-03-03T09:33:30.549Z,2036
2018-03-03T09:34:39.377Z,2064
2018-03-03T09:35:48.196Z,2068
2018-03-03T09:36:57.118Z,2068
2018-03-03T09:38:05.939Z,2088
2018-03-03T09:39:15.040Z,2096
2018-03-03T09:40:23.862Z,2116
2018-03-03T09:41:32.687Z,2124
2018-03-03T09:42:41.659Z,2140
2018-03-03T09:43:50.480Z,2160
2018-03-03T09:44:59.301Z,2192
2018-03-03T09:46:08.166Z,2192
2018-03-03T09:47:17.270Z,2180
2018-03-03T09:48:26.097Z,2212
2018-03-03T09:49:34.915Z,2236
2018-03-03T09:50:43.738Z,2236
2018-03-03T09:51:52.562Z,2244
2018-03-03T09:53:01.384Z,2260
2018-03-03T09:54:10.407Z,2252
2018-03-03T09:55:19.230Z,2268
2018-03-03T09:56:28.331Z,2272
2018-03-03T09:57:37.426Z,2292
2018-03-03T09:58:46.530Z,2268
2018-03-03T09:59:55.631Z,2320
2018-03-03T10:01:04.732Z,2340
2018-03-03T10:02:13.555Z,2312
2018-03-03T10:03:22.379Z,2352
2018-03-03T10:04:31.206Z,2364
2018-03-03T10:05:40.128Z,2360
2018-03-03T10:06:48.952Z,2364
2018-03-03T10:07:57.774Z,2372
2018-03-03T10:09:06.595Z,2412
2018-03-03T10:10:15.421Z,2400
2018-03-03T10:11:24.445Z,2396
2018-03-03T10:12:33.266Z,2412
2018-03-03T10:13:42.089Z,2384
2018-03-03T10:14:50.919Z,2416
2018-03-03T10:15:59.748Z,2384
2018-03-03T10:17:08.675Z,2388
2018-03-03T10:18:17.504Z,2408
2018-03-03T10:19:26.325Z,2444
2018-03-03T10:20:35.150Z,2448
2018-03-03T10:21:43.974Z,2440
2018-03-03T10:22:52.959Z,2476
2018-03-03T10:24:01.798Z,2508
2018-03-03T10:25:10.903Z,2488
2018-03-03T10:26:19.724Z,2528
2018-03-03T10:27:28.548Z,2504
2018-03-03T10:28:37.523Z,2528
2018-03-03T10:29:46.346Z,2524
2018-03-03T10:30:55.244Z,2508
2018-03-03T10:32:04.064Z,2548
2018-03-03T10:33:12.889Z,2532
2018-03-03T10:34:21.873Z,2564
2018-03-03T10:35:30.718Z,2592
2018-03-03T10:36:39.540Z,2640
2018-03-03T10:37:48.363Z,2616
2018-03-03T10:38:57.185Z,2580
2018-03-03T10:40:06.159Z,2620
2018-03-03T10:41:14.985Z,2660
2018-03-03T10:42:23.811Z,2664
2018-03-03T10:43:32.637Z,2680
2018-03-03T10:44:41.463Z,2696
2018-03-03T10:45:50.286Z,2684
2018-03-03T10:46:59.114Z,2664
2018-03-03T10:48:07.938Z,2688
2018-03-03T10:49:17.041Z,2708
2018-03-03T10:50:25.916Z,2684
2018-03-03T10:51:34.739Z,2748
2018-03-03T10:52:43.622Z,2736
2018-03-03T10:53:52.576Z,2744
2018-03-03T10:55:01.693Z,2768
2018-03-03T10:56:10.622Z,2808
2018-03-03T10:57:19.536Z,2788
2018-03-03T10:58:28.554Z,2828
2018-03-03T10:59:38.250Z,2824
2018-03-03T11:00:47.249Z,2812
2018-03-03T11:01:56.499Z,2828
2018-03-03T11:03:05.627Z,2872
2018-03-03T11:04:14.452Z,2832
2018-03-03T11:05:23.326Z,2872
2018-03-03T11:06:32.253Z,2872
2018-03-03T11:07:41.075Z,2896
2018-03-03T11:08:49.900Z,2904
2018-03-03T11:09:58.726Z,2896
2018-03-03T11:11:07.551Z,2940
2018-03-03T11:12:16.376Z,2916
2018-03-03T11:13:25.206Z,2948
2018-03-03T11:14:34.029Z,2972
2018-03-03T11:15:42.855Z,3024
2018-03-03T11:16:51.780Z,3032
2018-03-03T11:18:00.605Z,3040
2018-03-03T11:19:09.708Z,3096
2018-03-03T11:20:18.533Z,3084
2018-03-03T11:21:27.361Z,3096
2018-03-03T11:22:36.185Z,3112
2018-03-03T11:23:45.012Z,3152
2018-03-03T11:24:53.836Z,3168
2018-03-03T11:26:02.661Z,3184
2018-03-03T11:27:11.488Z,3180
2018-03-03T11:28:20.312Z,3196
2018-03-03T11:29:29.136Z,3224
2018-03-03T11:30:37.966Z,3252
2018-03-03T11:31:46.791Z,3268
2018-03-03T11:32:55.615Z,3256
2018-03-03T11:34:04.715Z,3240
2018-03-03T11:35:13.558Z,3272
2018-03-03T11:36:22.668Z,3264
2018-03-03T11:37:31.509Z,3324
2018-03-03T11:38:40.347Z,3364
2018-03-03T11:39:49.180Z,3400
2018-03-03T11:40:58.067Z,3404
2018-03-03T11:42:06.908Z,3428
2018-03-03T11:43:16.041Z,3436
2018-03-03T11:44:24.880Z,3420
2018-03-03T11:45:33.721Z,3388
2018-03-03T11:46:42.561Z,3436
2018-03-03T11:47:51.391Z,3464
2018-03-03T11:49:00.226Z,3460
2018-03-03T11:50:09.342Z,3500
2018-03-03T11:51:18.178Z,3560
2018-03-03T11:52:27.020Z,3568
2018-03-03T11:53:35.849Z,3564
2018-03-03T11:54:44.675Z,3588
2018-03-03T11:55:53.778Z,3548
2018-03-03T11:57:02.602Z,3552
2018-03-03T11:58:11.483Z,3612
2018-03-03T11:59:20.256Z,3640
2018-03-03T12:00:29.456Z,3664
2018-03-03T12:01:38.284Z,3692
2018-03-03T12:02:47.111Z,3720
2018-03-03T12:03:55.938Z,3744
2018-03-03T12:05:04.767Z,3768
2018-03-03T12:06:13.593Z,3780
2018-03-03T12:07:22.420Z,3808
2018-03-03T12:08:31.282Z,3868
2018-03-03T12:09:40.109Z,4088
2018-03-03T12:10:48.933Z,5016
2018-03-03T12:11:58.041Z,9644
2018-03-03T12:13:07.141Z,17120
2018-03-03T12:14:15.967Z,14260
2018-03-03T12:15:24.795Z,17856
2018-03-03T12:16:33.904Z,12084
2018-03-03T12:17:42.883Z,18528
2018-03-03T12:18:51.708Z,18272
2018-03-03T12:20:00.537Z,20352
2018-03-03T12:21:09.642Z,17248
2018-03-03T12:22:18.474Z,14332
2018-03-03T12:23:27.402Z,18752
2018-03-03T12:24:36.231Z,15456
2018-03-03T12:25:45.062Z,18784
2018-03-03T12:26:53.894Z,19136
2018-03-03T12:28:02.726Z,19648
2018-03-03T12:29:11.656Z,19424
2018-03-03T12:30:20.485Z,15520
2018-03-03T12:31:29.316Z,13452
2018-03-03T12:32:38.146Z,11968
2018-03-03T12:33:46.980Z,12760
2018-03-03T12:34:55.910Z,18240
2018-03-03T12:36:04.740Z,16864
2018-03-03T12:37:13.573Z,11984
2018-03-03T12:38:22.406Z,8792
2018-03-03T12:39:31.238Z,7852
2018-03-03T12:40:40.072Z,6972
2018-03-03T12:41:48.902Z,7640
2018-03-03T12:42:57.738Z,9172
2018-03-03T12:44:06.844Z,11816
2018-03-03T12:45:15.676Z,11056
2018-03-03T12:46:24.808Z,9780
2018-03-03T12:47:33.658Z,6736
2018-03-03T12:48:42.477Z,5596
2018-03-03T12:49:51.314Z,5084
2018-03-03T12:51:00.147Z,5148
2018-03-03T12:52:09.131Z,6680
2018-03-03T12:53:17.963Z,7096
2018-03-03T12:54:26.796Z,11380
2018-03-03T12:55:35.632Z,6976
2018-03-03T12:56:44.468Z,9452
2018-03-03T12:57:53.739Z,7508
2018-03-03T12:59:02.572Z,8728
2018-03-03T13:00:11.400Z,10604
2018-03-03T13:01:20.232Z,7908
2018-03-03T13:02:29.067Z,7396
2018-03-03T13:03:37.995Z,7568
2018-03-03T13:04:46.828Z,8732
2018-03-03T13:05:55.660Z,12388
2018-03-03T13:07:04.496Z,8636
2018-03-03T13:08:13.329Z,12132
2018-03-03T13:09:22.161Z,11212
2018-03-03T13:10:31.003Z,10248
2018-03-03T13:11:39.837Z,12112
2018-03-03T13:12:48.682Z,18464
2018-03-03T13:13:57.507Z,21120
2018-03-03T13:15:06.641Z,16992
2018-03-03T13:16:15.474Z,16576
2018-03-03T13:17:24.310Z,19648
2018-03-03T13:18:33.419Z,18304
2018-03-03T13:19:42.259Z,14880
2018-03-03T13:20:51.492Z,13544
2018-03-03T13:22:00.328Z,9964
2018-03-03T13:23:09.164Z,14108
2018-03-03T13:24:17.999Z,21376
2018-03-03T13:25:26.834Z,14288
2018-03-03T13:26:35.669Z,4956
2018-03-03T13:27:44.502Z,4524
2018-03-03T13:28:53.335Z,4556
2018-03-03T13:30:02.173Z,5672
2018-03-03T13:31:11.283Z,9876
2018-03-03T13:32:20.269Z,13972
2018-03-03T13:33:29.104Z,9544
2018-03-03T13:34:37.939Z,16512
2018-03-03T13:35:46.780Z,11712
2018-03-03T13:36:55.616Z,4472
2018-03-03T13:38:04.878Z,4396
2018-03-03T13:39:13.819Z,5288
2018-03-03T13:40:22.653Z,9624
2018-03-03T13:41:31.486Z,10116
2018-03-03T13:42:40.320Z,10096
2018-03-03T13:43:49.203Z,7360
2018-03-03T13:44:58.035Z,8160
2018-03-03T13:46:06.869Z,11900
2018-03-03T13:47:15.702Z,13956
2018-03-03T13:48:24.535Z,14372
2018-03-03T13:49:33.518Z,19616
2018-03-03T13:50:42.356Z,13844
2018-03-03T13:51:51.880Z,11572
2018-03-03T13:53:00.713Z,12064
2018-03-03T13:54:09.822Z,11244
2018-03-03T13:55:18.655Z,7432
2018-03-03T13:56:27.488Z,16672
2018-03-03T13:57:36.599Z,18816
2018-03-03T13:58:45.434Z,16800
2018-03-03T13:59:54.540Z,16256
2018-03-03T14:01:03.434Z,12636
2018-03-03T14:02:12.496Z,13036
2018-03-03T14:03:21.640Z,20096
2018-03-03T14:04:31.032Z,24032
2018-03-03T14:05:39.867Z,24608
2018-03-03T14:06:48.709Z,23776
2018-03-03T14:07:57.543Z,21408
2018-03-03T14:09:06.381Z,15008
2018-03-03T14:10:15.213Z,10372
2018-03-03T14:11:24.051Z,14132
2018-03-03T14:12:32.888Z,12208
2018-03-03T14:13:41.728Z,16352
2018-03-03T14:14:50.563Z,20832
2018-03-03T14:15:59.550Z,16928
2018-03-03T14:17:08.386Z,20288
2018-03-03T14:18:17.225Z,20800
2018-03-03T14:19:26.065Z,15552
2018-03-03T14:20:34.911Z,14044
2018-03-03T14:21:43.750Z,17472
2018-03-03T14:22:52.631Z,17216
2018-03-03T14:24:01.428Z,10916
2018-03-03T14:25:10.537Z,11028
2018-03-03T14:26:19.476Z,13568
2018-03-03T14:27:28.313Z,11640
2018-03-03T14:28:37.148Z,9928
2018-03-03T14:29:45.988Z,14528
2018-03-03T14:30:54.827Z,16960
2018-03-03T14:32:04.055Z,13504
2018-03-03T14:33:12.924Z,11536
2018-03-03T14:34:21.761Z,13952
2018-03-03T14:35:30.598Z,18016
2018-03-03T14:36:39.440Z,18304
2018-03-03T14:37:48.470Z,11312
2018-03-03T14:38:57.306Z,16288
2018-03-03T14:40:06.142Z,20736
2018-03-03T14:41:14.978Z,16480
2018-03-03T14:42:23.818Z,16704
2018-03-03T14:43:32.658Z,17792
2018-03-03T14:44:41.491Z,14304
2018-03-03T14:45:50.328Z,12556
2018-03-03T14:46:59.493Z,12092
2018-03-03T14:48:08.344Z,10104
2018-03-03T14:49:17.249Z,13012
2018-03-03T14:50:26.363Z,14240
2018-03-03T14:51:35.211Z,10416
2018-03-03T14:52:44.047Z,7392
2018-03-03T14:53:52.882Z,10096
2018-03-03T14:55:01.820Z,11228
2018-03-03T14:56:10.655Z,8856
2018-03-03T14:57:19.492Z,9184
2018-03-03T14:58:28.327Z,8072
2018-03-03T14:59:37.716Z,8568
2018-03-03T15:00:46.851Z,7384
2018-03-03T15:01:55.689Z,6452
2018-03-03T15:03:04.567Z,6816
2018-03-03T15:04:13.357Z,6596
2018-03-03T15:05:22.191Z,7388
2018-03-03T15:06:31.023Z,9552
2018-03-03T15:07:39.859Z,10704
2018-03-03T15:08:48.690Z,11872
2018-03-03T15:09:57.525Z,13248
2018-03-03T15:11:06.360Z,14240
2018-03-03T15:12:15.574Z,10432
2018-03-03T15:13:24.409Z,8196
2018-03-03T15:14:33.246Z,7956
2018-03-03T15:15:42.084Z,6076
2018-03-03T15:16:51.192Z,5004
2018-03-03T15:18:00.305Z,4840
2018-03-03T15:19:09.141Z,6760
2018-03-03T15:20:18.250Z,7240
2018-03-03T15:21:27.083Z,8188
2018-03-03T15:22:35.915Z,5720
2018-03-03T15:23:44.855Z,7888
2018-03-03T15:24:53.683Z,6848
2018-03-03T15:26:02.517Z,4272
2018-03-03T15:27:11.352Z,5436
2018-03-03T15:28:20.182Z,4864
2018-03-03T15:29:29.116Z,4408
2018-03-03T15:30:37.949Z,4232
2018-03-03T15:31:46.780Z,5632
2018-03-03T15:32:55.614Z,6608
2018-03-03T15:34:04.448Z,6244
2018-03-03T15:35:13.280Z,7044
2018-03-03T15:36:22.110Z,7712
2018-03-03T15:37:31.226Z,4324
2018-03-03T15:38:40.057Z,4276
2018-03-03T15:39:48.889Z,4416
2018-03-03T15:40:57.871Z,5456
2018-03-03T15:42:06.706Z,6052
2018-03-03T15:43:15.535Z,5764
2018-03-03T15:44:24.650Z,4468
2018-03-03T15:45:33.556Z,6408
2018-03-03T15:46:42.386Z,4996
2018-03-03T15:47:51.219Z,3132
2018-03-03T15:49:00.402Z,4120
2018-03-03T15:50:09.237Z,5036
2018-03-03T15:51:18.069Z,4576